Time;durP1;ratioP1;P1;durP2;ratioP2;P2;SDS_P1;SDS_P2;PMS_P1;PMS_P2;Temp;Humidity;BMP_temperature;BMP_pressure;BME280_temperature;BME280_humidity;BME280_pressure;Samples;Min_cycle;Max_cycle;Signal;HPM_P1;HPM_P2
2022/01/04 00:02:23;;;;;;;27.65;4.00;;;;;;;6.27;100.00;99359.16;5001529;28;20288;-81
2022/01/04 00:04:48;;;;;;;20.97;5.10;;;;;;;6.29;100.00;99368.59;4988205;28;20069;-81
2022/01/04 00:07:14;;;;;;;26.70;5.50;;;;;;;6.41;100.00;99369.06;4990033;28;20034;-81
2022/01/04 00:09:42;;;;;;;19.88;4.50;;;;;;;6.33;100.00;99359.31;4996306;28;20022;-81
2022/01/04 00:14:53;;;;;;;21.65;5.30;;;;;;;6.37;100.00;99359.81;5010240;28;20043;-81
2022/01/04 00:17:18;;;;;;;22.08;4.55;;;;;;;6.40;100.00;99362.13;5000185;28;20030;-80
2022/01/04 00:19:44;;;;;;;19.57;5.03;;;;;;;6.40;100.00;99366.59;5009890;28;20042;-81
2022/01/04 00:22:09;;;;;;;18.27;4.90;;;;;;;6.38;100.00;99360.63;4989790;28;20064;-81
2022/01/04 00:24:36;;;;;;;26.07;6.40;;;;;;;6.45;100.00;99367.75;5006443;28;20045;-79
2022/01/04 00:27:01;;;;;;;22.10;4.88;;;;;;;6.39;100.00;99352.53;5002053;28;20079;-81
2022/01/04 00:29:27;;;;;;;;;;;;;;;6.52;100.00;99374.03;5002354;28;20058;-81
2022/01/04 00:31:53;;;;;;;19.35;4.38;;;;;;;6.45;100.00;99357.13;4988354;28;19917;-81
2022/01/04 00:34:18;;;;;;;22.65;4.05;;;;;;;6.33;100.00;99337.28;5005132;28;20037;-79
2022/01/04 00:36:44;;;;;;;15.03;5.43;;;;;;;6.46;100.00;99357.97;5003609;28;20034;-80
2022/01/04 00:39:09;;;;;;;18.70;4.47;;;;;;;6.46;100.00;99358.81;5001412;28;20069;-81
2022/01/04 00:41:34;;;;;;;25.40;4.53;;;;;;;6.48;100.00;99353.31;5000518;28;20034;-81
2022/01/04 00:44:00;;;;;;;21.40;4.90;;;;;;;6.50;100.00;99348.66;4998125;28;20041;-79
2022/01/04 00:46:25;;;;;;;14.33;4.30;;;;;;;6.38;100.00;99320.88;5006606;28;20160;-80
2022/01/04 00:49:10;;;;;;;16.97;4.00;;;;;;;6.42;100.00;99327.50;5002103;28;20034;-80
2022/01/04 00:51:40;;;;;;;23.10;4.90;;;;;;;6.46;100.00;99337.59;5000970;28;20045;-80
2022/01/04 00:54:06;;;;;;;31.17;4.68;;;;;;;6.44;100.00;99328.13;4999543;28;20519;-80
2022/01/04 00:56:32;;;;;;;22.17;4.50;;;;;;;6.40;100.00;99318.88;4983628;28;20030;-81
2022/01/04 00:58:57;;;;;;;27.03;4.40;;;;;;;6.42;100.00;99319.56;4994422;28;20493;-80
2022/01/04 01:01:23;;;;;;;29.60;5.22;;;;;;;6.46;100.00;99310.22;4997830;28;20284;-81
2022/01/04 01:03:49;;;;;;;21.15;5.43;;;;;;;6.44;100.00;99320.19;4977629;28;20121;-81
2022/01/04 01:06:14;;;;;;;22.92;5.25;;;;;;;6.51;100.00;99322.00;5001776;28;20103;-81
2022/01/04 01:08:40;;;;;;;25.45;5.22;;;;;;;6.48;100.00;99303.75;4985808;28;20042;-80
2022/01/04 01:11:07;;;;;;;22.10;4.70;;;;;;;6.43;100.00;99315.88;4991823;28;20040;-79
2022/01/04 01:13:33;;;;;;;28.48;4.70;;;;;;;6.49;100.00;99316.03;4998304;28;20043;-80
2022/01/04 01:15:59;;;;;;;31.63;6.07;;;;;;;6.40;100.00;99300.34;4990623;28;20028;-80
2022/01/04 01:18:24;;;;;;;28.33;5.27;;;;;;;6.42;100.00;99301.00;4998725;28;20137;-80
2022/01/04 01:20:50;;;;;;;18.52;4.15;;;;;;;6.45;100.00;99301.47;4999006;28;20065;-79
2022/01/04 01:23:16;;;;;;;24.23;5.00;;;;;;;6.41;100.00;99296.66;4997653;28;20034;-80
2022/01/04 01:25:42;;;;;;;17.58;4.05;;;;;;;6.34;100.00;99278.81;4998595;28;20041;-80
2022/01/04 01:28:07;;;;;;;22.53;4.33;;;;;;;6.38;100.00;99295.19;4998473;28;20034;-79
2022/01/04 01:30:36;;;;;;;14.27;3.80;;;;;;;6.37;100.00;99282.94;4981632;28;20026;-79
2022/01/04 01:33:01;;;;;;;20.38;5.22;;;;;;;6.32;100.00;99287.91;4978243;28;20480;-80
2022/01/04 01:35:27;;;;;;;21.52;4.65;;;;;;;6.28;100.00;99284.78;5000449;28;20029;-80
2022/01/04 01:37:52;;;;;;;18.77;4.33;;;;;;;6.28;100.00;99292.75;4999247;28;20407;-80
2022/01/04 01:40:18;;;;;;;21.33;5.45;;;;;;;6.27;100.00;99291.06;4983533;28;20057;-80
2022/01/04 01:42:43;;;;;;;16.00;4.00;;;;;;;6.27;100.00;99282.28;4981677;28;20065;-80
2022/01/04 01:45:13;;;;;;;17.75;6.28;;;;;;;6.20;100.00;99282.16;4992086;28;20912;-80
2022/01/04 01:47:41;;;;;;;29.27;6.90;;;;;;;6.23;100.00;99296.91;4992423;28;20128;-80
2022/01/04 01:50:07;;;;;;;26.08;5.88;;;;;;;6.25;100.00;99290.44;4994275;28;20017;-80
2022/01/04 01:52:32;;;;;;;;;;;;;;;6.23;100.00;99286.31;4993251;28;20033;-79
2022/01/04 01:54:58;;;;;;;;;;;;;;;6.29;100.00;99288.25;5006090;28;20479;-80
2022/01/04 01:57:24;;;;;;;21.13;4.63;;;;;;;6.25;100.00;99287.78;4981255;28;19940;-80
2022/01/04 01:59:50;;;;;;;27.77;6.70;;;;;;;6.28;100.00;99284.78;4998532;28;20065;-80
2022/01/04 02:02:15;;;;;;;22.38;5.10;;;;;;;6.20;100.00;99268.91;4981380;28;20066;-80
2022/01/04 02:04:41;;;;;;;25.23;7.13;;;;;;;6.23;100.00;99275.72;4986726;28;20022;-80
2022/01/04 02:07:07;;;;;;;29.05;6.30;;;;;;;6.27;100.00;99264.56;5001340;28;20108;-81
2022/01/04 02:09:35;;;;;;;26.00;7.20;;;;;;;6.36;100.00;99288.41;5001071;28;20447;-80
2022/01/04 02:12:01;;;;;;;18.30;5.53;;;;;;;6.33;100.00;99274.50;4997726;28;20049;-80
2022/01/04 02:14:26;;;;;;;13.52;4.00;;;;;;;6.36;100.00;99269.84;4980705;28;20018;-80
2022/01/04 02:16:52;;;;;;;20.23;4.70;;;;;;;6.31;100.00;99259.75;4980961;28;20049;-80
2022/01/04 02:19:17;;;;;;;12.43;4.37;;;;;;;6.34;100.00;99275.31;5000936;28;20100;-79
2022/01/04 02:21:42;;;;;;;27.00;6.27;;;;;;;6.43;100.00;99276.94;4999569;28;20455;-79
2022/01/04 02:24:08;;;;;;;22.63;5.03;;;;;;;6.39;100.00;99266.84;4981456;28;20361;-79
2022/01/04 02:26:33;;;;;;;19.37;4.77;;;;;;;6.37;100.00;99267.03;4997081;28;20049;-79
2022/01/04 02:29:00;;;;;;;23.30;5.50;;;;;;;6.33;100.00;99258.59;4999901;28;20030;-79
2022/01/04 02:31:26;;;;;;;;;;;;;;;6.43;100.00;99268.16;5000624;28;20670;-79
2022/01/04 02:33:52;;;;;;;26.92;5.68;;;;;;;6.22;100.00;99256.31;4993395;28;20433;-80
2022/01/04 02:36:17;;;;;;;26.07;6.23;;;;;;;6.23;100.00;99254.50;5001103;28;20069;-80
2022/01/04 02:38:43;;;;;;;35.27;6.67;;;;;;;6.26;100.00;99267.41;4999900;28;20033;-80
2022/01/04 02:41:08;;;;;;;22.23;6.23;;;;;;;6.24;100.00;99264.91;4997428;28;20026;-79
2022/01/04 02:43:33;;;;;;;27.63;7.50;;;;;;;6.19;100.00;99266.44;4985298;28;20733;-80
2022/01/04 02:45:59;;;;;;;29.10;6.33;;;;;;;6.16;100.00;99262.31;4983866;28;20037;-79
2022/01/04 02:48:24;;;;;;;24.87;5.50;;;;;;;6.06;100.00;99235.16;5000248;28;20432;-81
2022/01/04 02:50:50;;;;;;;33.13;6.63;;;;;;;6.13;100.00;99244.94;4997919;28;20041;-79
2022/01/04 02:53:16;;;;;;;22.08;6.53;;;;;;;6.08;100.00;99236.63;4999041;28;20015;-79
2022/01/04 02:55:42;;;;;;;24.88;6.82;;;;;;;6.05;100.00;99239.63;4985905;28;20038;-79
2022/01/04 02:58:07;;;;;;;23.97;9.13;;;;;;;6.00;100.00;99241.97;5003615;28;20097;-79
2022/01/04 03:00:32;;;;;;;21.27;6.97;;;;;;;6.02;100.00;99233.88;4987379;28;20041;-79
2022/01/04 03:02:58;;;;;;;21.27;5.83;;;;;;;6.04;100.00;99224.75;4992617;28;20018;-80
2022/01/04 03:05:23;;;;;;;31.00;6.27;;;;;;;5.98;100.00;99235.19;4983158;28;20093;-79
2022/01/04 03:07:49;;;;;;;31.33;6.63;;;;;;;6.05;100.00;99241.47;5006240;28;20858;-80
2022/01/04 03:10:14;;;;;;;25.30;6.13;;;;;;;6.07;100.00;99231.53;5003067;28;20048;-80
2022/01/04 03:12:42;;;;;;;35.83;6.53;;;;;;;5.98;100.00;99224.59;4994542;28;20069;-80
2022/01/04 03:15:09;;;;;;;28.75;7.03;;;;;;;5.92;100.00;99226.06;4983652;28;20085;-80
2022/01/04 03:17:34;;;;;;;;;;;;;;;5.98;100.00;99222.78;4984091;28;20022;-79
2022/01/04 03:19:59;;;;;;;20.83;7.20;;;;;;;6.01;100.00;99224.25;4986223;28;20345;-80
2022/01/04 03:22:25;;;;;;;29.40;5.90;;;;;;;6.10;100.00;99231.19;5003221;28;20557;-80
2022/01/04 03:24:50;;;;;;;24.20;5.60;;;;;;;6.04;100.00;99223.91;5000246;28;20045;-79
2022/01/04 03:27:16;;;;;;;19.10;6.07;;;;;;;5.99;100.00;99202.41;4999525;28;20065;-80
2022/01/04 03:29:41;;;;;;;31.70;5.90;;;;;;;6.03;100.00;99212.47;4999825;28;20258;-79
2022/01/04 03:32:07;;;;;;;32.17;6.87;;;;;;;5.97;100.00;99188.50;4996851;28;20014;-78
2022/01/04 03:34:33;;;;;;;21.35;5.57;;;;;;;6.06;100.00;99192.75;4996056;28;20031;-78
2022/01/04 03:36:58;;;;;;;25.83;6.95;;;;;;;6.00;100.00;99186.34;4999280;28;20021;-79
2022/01/04 03:39:23;;;;;;;21.90;7.87;;;;;;;6.06;100.00;99184.81;4984113;28;20041;-78
2022/01/04 03:41:50;;;;;;;15.17;4.90;;;;;;;6.02;100.00;99181.69;5001864;28;20054;-79
2022/01/04 03:44:19;;;;;;;23.63;5.28;;;;;;;6.05;100.00;99172.59;5002998;28;20037;-79
2022/01/04 03:46:54;;;;;;;18.67;4.43;;;;;;;6.13;100.00;99188.44;5002100;28;20064;-79
2022/01/04 03:49:20;;;;;;;24.00;5.25;;;;;;;6.02;100.00;99151.75;5000079;28;20037;-79
2022/01/04 03:51:45;;;;;;;20.48;5.80;;;;;;;6.02;100.00;99151.75;5001118;28;20110;-78
2022/01/04 03:54:11;;;;;;;17.50;6.23;;;;;;;6.13;100.00;99161.94;5003044;28;20061;-80
2022/01/04 03:56:36;;;;;;;21.20;5.13;;;;;;;6.03;100.00;99148.06;4994927;28;20034;-78
2022/01/04 03:59:03;;;;;;;18.67;5.87;;;;;;;5.96;100.00;99144.47;5000018;28;20061;-78
2022/01/04 04:01:28;;;;;;;;;;;;;;;6.02;100.00;99154.38;5000189;28;20300;-78
2022/01/04 04:03:53;;;;;;;21.92;6.68;;;;;;;6.03;100.00;99146.25;4999640;28;19917;-79
2022/01/04 04:06:19;;;;;;;18.07;5.63;;;;;;;5.99;100.00;99136.16;4999713;28;20023;-78
2022/01/04 04:08:45;;;;;;;17.30;5.55;;;;;;;6.08;100.00;99145.72;5000477;28;20038;-78
2022/01/04 04:11:11;;;;;;;20.15;7.13;;;;;;;6.04;100.00;99142.63;4994354;28;20379;-79
2022/01/04 04:13:36;;;;;;;17.02;5.00;;;;;;;6.04;100.00;99133.81;5002606;28;20053;-81
2022/01/04 04:16:02;;;;;;;20.23;6.13;;;;;;;6.03;100.00;99133.00;4999346;28;20026;-78
2022/01/04 04:18:27;;;;;;;20.97;6.20;;;;;;;6.05;100.00;99143.44;4999333;28;20068;-78
2022/01/04 04:20:52;;;;;;;22.40;5.73;;;;;;;6.09;100.00;99137.63;5001465;28;20578;-79
2022/01/04 04:23:18;;;;;;;26.17;6.10;;;;;;;6.06;100.00;99134.47;5002665;28;20054;-79
2022/01/04 04:25:43;;;;;;;18.37;6.40;;;;;;;6.05;100.00;99132.84;5001275;28;20137;-78
2022/01/04 04:28:09;;;;;;;26.93;6.80;;;;;;;5.89;100.00;99108.03;4999437;28;20030;-78
2022/01/04 04:30:35;;;;;;;9.43;5.50;;;;;;;6.01;100.00;99126.22;4999355;28;20906;-79
2022/01/04 04:33:00;;;;;;;;;;;;;;;6.01;100.00;99120.94;5002868;28;20761;-78
2022/01/04 04:35:26;;;;;;;22.08;6.70;;;;;;;6.00;100.00;99119.28;4986078;28;19916;-78
2022/01/04 04:37:51;;;;;;;21.77;6.23;;;;;;;6.00;100.00;99114.81;5000400;28;20037;-79
2022/01/04 04:40:17;;;;;;;24.23;6.83;;;;;;;5.95;100.00;99113.66;4998835;28;20278;-79
2022/01/04 04:42:42;;;;;;;23.95;7.68;;;;;;;5.98;100.00;99108.03;4999772;28;20038;-78
2022/01/04 04:45:08;;;;;;;24.77;6.47;;;;;;;5.99;100.00;99107.03;4998011;28;20042;-78
2022/01/04 04:47:33;;;;;;;24.88;7.75;;;;;;;6.07;100.00;99110.47;4998786;28;20038;-78
2022/01/04 04:50:00;;;;;;;28.00;9.17;;;;;;;6.08;100.00;99106.00;4993110;28;20021;-79
2022/01/04 04:52:25;;;;;;;29.08;7.47;;;;;;;6.12;100.00;99112.59;5002267;28;20049;-80
2022/01/04 04:54:51;;;;;;;22.15;7.07;;;;;;;6.01;100.00;99100.56;4983388;28;20476;-78
2022/01/04 04:57:16;;;;;;;36.10;7.93;;;;;;;6.01;100.00;99083.84;4998503;28;20659;-79
2022/01/04 04:59:41;;;;;;;35.70;8.57;;;;;;;5.98;100.00;99078.91;4999564;28;20456;-79
2022/01/04 05:02:07;;;;;;;30.77;8.03;;;;;;;5.93;100.00;99077.56;5001935;28;20034;-78
2022/01/04 05:04:36;;;;;;;34.15;10.18;;;;;;;6.02;100.00;99085.50;5004117;28;20022;-80
2022/01/04 05:07:02;;;;;;;28.77;9.00;;;;;;;6.01;100.00;99076.72;4986961;28;20037;-80
2022/01/04 05:09:28;;;;;;;34.65;9.98;;;;;;;6.01;100.00;99070.59;4994924;28;20085;-79
2022/01/04 05:11:53;;;;;;;20.52;7.97;;;;;;;5.99;100.00;99059.34;4989765;28;20412;-78
2022/01/04 05:14:19;;;;;;;19.33;7.57;;;;;;;6.12;100.00;99080.81;4988335;28;20026;-80
2022/01/04 05:16:44;;;;;;;29.15;7.70;;;;;;;6.14;100.00;99073.50;4998883;28;20678;-80
2022/01/04 05:19:10;;;;;;;19.53;8.50;;;;;;;6.08;100.00;99060.94;4999542;28;20057;-80
2022/01/04 05:21:36;;;;;;;25.67;8.82;;;;;;;6.07;100.00;99048.72;5000509;28;20515;-80
2022/01/04 05:24:01;;;;;;;22.97;7.10;;;;;;;6.07;100.00;99040.75;4998984;28;20023;-81
2022/01/04 05:26:26;;;;;;;25.23;7.60;;;;;;;6.08;100.00;99040.56;4999528;28;20285;-80
2022/01/04 05:28:52;;;;;;;29.47;7.73;;;;;;;5.98;100.00;99026.72;4988763;28;20481;-81
2022/01/04 05:31:17;;;;;;;27.87;9.50;;;;;;;6.05;100.00;99032.16;4981886;28;20034;-80
2022/01/04 05:33:43;;;;;;;27.50;7.93;;;;;;;6.09;100.00;99033.47;4999524;28;20318;-80
2022/01/04 05:36:09;;;;;;;24.15;8.23;;;;;;;6.10;100.00;99029.81;5002381;28;20033;-80
2022/01/04 05:38:34;;;;;;;26.07;9.63;;;;;;;6.18;100.00;99040.38;5002220;28;20034;-80
2022/01/04 05:41:00;;;;;;;26.83;10.20;;;;;;;6.09;100.00;99022.88;4999195;28;20034;-80
2022/01/04 05:43:25;;;;;;;25.97;9.70;;;;;;;6.18;100.00;99023.63;4999055;28;20023;-80
2022/01/04 05:45:51;;;;;;;27.58;9.15;;;;;;;6.08;100.00;99013.25;4999497;28;20034;-80
2022/01/04 05:48:18;;;;;;;24.30;9.63;;;;;;;6.10;100.00;99013.91;4992763;28;20116;-80
2022/01/04 05:50:44;;;;;;;25.85;9.07;;;;;;;6.09;100.00;99023.69;4998697;28;20034;-80
2022/01/04 05:53:09;;;;;;;23.95;9.13;;;;;;;6.06;100.00;99012.59;4994894;28;20018;-80
2022/01/04 05:55:34;;;;;;;24.33;8.77;;;;;;;5.99;100.00;99016.94;4993985;28;20077;-80
2022/01/04 05:58:00;;;;;;;22.90;8.90;;;;;;;5.97;100.00;99024.25;4997633;28;20056;-80
2022/01/04 06:00:25;;;;;;;23.70;8.33;;;;;;;6.01;100.00;99028.22;4999039;28;20061;-80
2022/01/04 06:02:50;;;;;;;34.83;9.63;;;;;;;6.06;100.00;99033.78;4981945;28;20492;-80
2022/01/04 06:05:16;;;;;;;25.17;9.97;;;;;;;5.98;100.00;99023.25;4994138;28;20125;-80
2022/01/04 06:07:41;;;;;;;22.63;9.40;;;;;;;5.92;100.00;99014.16;4982397;28;20022;-79
2022/01/04 06:10:08;;;;;;;22.13;9.77;;;;;;;5.93;100.00;99019.28;4979412;28;20634;-80
2022/01/04 06:15:08;;;;;;;30.48;11.02;;;;;;;5.92;100.00;99024.75;4998135;28;20026;-80
2022/01/04 06:17:39;;;;;;;18.20;8.68;;;;;;;5.96;100.00;99028.72;4997583;28;20022;-79
2022/01/04 06:20:07;;;;;;;24.10;9.95;;;;;;;5.96;100.00;99028.72;4981573;28;20384;-80
2022/01/04 06:22:32;;;;;;;32.60;9.70;;;;;;;6.04;100.00;99035.78;4997567;28;20580;-80
2022/01/04 06:24:58;;;;;;;37.22;9.80;;;;;;;5.99;100.00;99020.41;5000110;28;20141;-79
2022/01/04 06:27:23;;;;;;;23.97;10.20;;;;;;;6.00;100.00;99010.69;5001661;28;20560;-79
2022/01/04 06:29:49;;;;;;;21.05;10.15;;;;;;;6.06;100.00;99007.31;4988042;28;20034;-79
2022/01/04 06:32:15;;;;;;;30.38;11.25;;;;;;;5.93;100.00;98981.38;4996542;28;20045;-79
2022/01/04 06:34:42;;;;;;;32.65;12.90;;;;;;;5.98;100.00;98992.28;5003537;28;20038;-79
2022/01/04 06:37:09;;;;;;;36.92;12.05;;;;;;;6.08;100.00;99006.13;5000441;28;20361;-79
2022/01/04 06:39:37;;;;;;;31.40;11.65;;;;;;;6.05;100.00;98995.88;4989424;28;20034;-80
2022/01/04 06:42:03;;;;;;;27.05;10.35;;;;;;;6.09;100.00;98997.19;4981499;28;20375;-79
2022/01/04 06:44:29;;;;;;;36.60;10.52;;;;;;;6.05;100.00;98990.59;5004245;28;20858;-80
2022/01/04 06:46:54;;;;;;;37.70;13.13;;;;;;;6.03;100.00;98982.00;5000533;28;20030;-79
2022/01/04 06:49:20;;;;;;;39.87;12.90;;;;;;;6.06;100.00;98975.50;5003744;28;20132;-80
2022/01/04 06:51:47;;;;;;;27.90;9.68;;;;;;;5.96;100.00;98972.28;4992498;28;20046;-79
2022/01/04 06:54:14;;;;;;;30.23;9.55;;;;;;;6.03;100.00;98981.16;5003745;28;20034;-79
2022/01/04 06:56:39;;;;;;;32.25;10.70;;;;;;;6.06;100.00;98986.09;5003813;28;20021;-80
2022/01/04 06:59:05;;;;;;;29.17;10.43;;;;;;;5.98;100.00;98979.06;5000714;28;20030;-79
2022/01/04 07:01:32;;;;;;;35.45;12.20;;;;;;;6.05;100.00;98990.59;4999780;28;20053;-79
2022/01/04 07:03:57;;;;;;;22.90;10.25;;;;;;;6.04;100.00;98977.50;4980857;28;20029;-78
2022/01/04 07:06:23;;;;;;;29.13;11.17;;;;;;;6.00;100.00;98982.34;5003624;28;20029;-79
2022/01/04 07:08:48;;;;;;;27.20;10.77;;;;;;;5.90;100.00;98971.97;4993497;28;20056;-79
2022/01/04 07:11:15;;;;;;;30.85;10.98;;;;;;;5.99;100.00;98979.88;5005683;28;20041;-78
2022/01/04 07:13:40;;;;;;;20.85;11.02;;;;;;;5.97;100.00;98993.31;5002522;28;20057;-79
2022/01/04 07:16:06;;;;;;;22.10;10.53;;;;;;;6.00;100.00;98984.19;4981585;28;20049;-79
2022/01/04 07:18:32;;;;;;;24.88;10.73;;;;;;;5.93;100.00;98976.91;4998815;28;20405;-80
2022/01/04 07:20:58;;;;;;;26.13;10.20;;;;;;;6.00;100.00;98977.06;4987057;28;20018;-78
2022/01/04 07:23:23;;;;;;;33.23;10.27;;;;;;;6.07;100.00;98977.19;4988829;28;20031;-79
2022/01/04 07:25:49;;;;;;;34.73;11.07;;;;;;;6.04;100.00;98966.91;4983526;28;20265;-79
2022/01/04 07:28:15;;;;;;;24.63;10.68;;;;;;;5.99;100.00;98963.97;5001146;28;20038;-79
2022/01/04 07:30:40;;;;;;;33.92;12.20;;;;;;;5.97;100.00;98960.66;4987670;28;20026;-80
2022/01/04 07:33:06;;;;;;;24.45;12.25;;;;;;;6.03;100.00;98958.16;4970739;28;20085;-79
2022/01/04 07:35:31;;;;;;;32.80;11.18;;;;;;;5.99;100.00;98959.50;4993942;28;20508;-78
2022/01/04 07:37:57;;;;;;;36.07;13.40;;;;;;;6.05;100.00;98961.44;4995266;28;20365;-78
2022/01/04 07:40:22;;;;;;;27.70;9.57;;;;;;;6.01;100.00;98960.16;4976844;28;20030;-79
2022/01/04 07:42:48;;;;;;;23.03;10.60;;;;;;;5.92;100.00;98959.38;5000444;28;20669;-79
2022/01/04 07:45:14;;;;;;;25.83;11.27;;;;;;;5.98;100.00;98960.50;4999683;28;20281;-78
2022/01/04 07:47:41;;;;;;;26.67;9.30;;;;;;;5.99;100.00;98954.19;5005353;28;20035;-80
2022/01/04 07:50:08;;;;;;;29.15;11.35;;;;;;;5.97;100.00;98955.38;4993358;28;20572;-80
2022/01/04 07:52:34;;;;;;;20.00;8.98;;;;;;;6.02;100.00;98955.69;4993083;28;20038;-79
2022/01/04 07:55:00;;;;;;;30.17;10.63;;;;;;;5.89;100.00;98935.88;4993636;28;20105;-81
2022/01/04 07:57:26;;;;;;;27.35;11.13;;;;;;;6.00;100.00;98958.50;4996914;28;20049;-80
2022/01/04 07:59:51;;;;;;;27.45;9.73;;;;;;;5.91;100.00;98941.81;4994334;28;20018;-78
2022/01/04 08:02:16;;;;;;;29.93;8.90;;;;;;;5.95;100.00;98938.81;4972836;28;20141;-79
2022/01/04 08:04:42;;;;;;;23.33;9.30;;;;;;;5.92;100.00;98927.59;4983454;28;20052;-78
2022/01/04 08:07:07;;;;;;;20.13;9.13;;;;;;;5.96;100.00;98929.91;4998583;28;20065;-79
2022/01/04 08:09:33;;;;;;;23.50;9.50;;;;;;;5.96;100.00;98916.66;4994387;28;20316;-80
2022/01/04 08:11:58;;;;;;;22.10;8.40;;;;;;;5.91;100.00;98910.03;4979348;28;20030;-80
2022/01/04 08:14:24;;;;;;;27.50;9.67;;;;;;;5.92;100.00;98908.19;4992530;28;20466;-79
2022/01/04 08:16:49;;;;;;;26.97;9.37;;;;;;;5.86;100.00;98891.19;4993818;28;20281;-79
2022/01/04 08:19:14;;;;;;;23.07;9.23;;;;;;;5.86;100.00;98901.78;4982868;28;20034;-81
2022/01/04 08:21:40;;;;;;;26.23;9.60;;;;;;;5.82;100.00;98900.50;5000549;28;20117;-81
2022/01/04 08:24:06;;;;;;;25.40;9.53;;;;;;;5.80;100.00;98906.97;4999445;28;20028;-79
2022/01/04 08:26:31;;;;;;;27.27;8.77;;;;;;;5.88;100.00;98914.88;4977184;28;20073;-80
2022/01/04 08:28:57;;;;;;;34.60;8.82;;;;;;;5.97;100.00;98918.28;4994217;28;20064;-78
2022/01/04 08:31:23;;;;;;;21.17;8.85;;;;;;;5.93;100.00;98913.31;4992954;28;20400;-79
2022/01/04 08:33:48;;;;;;;22.08;7.57;;;;;;;5.96;100.00;98904.22;5000271;28;20019;-79
2022/01/04 08:36:13;;;;;;;16.93;7.90;;;;;;;5.87;100.00;98882.25;5002219;28;20034;-78
2022/01/04 08:38:43;;;;;;;21.47;6.80;;;;;;;5.97;100.00;98897.09;4994611;28;20076;-80
2022/01/04 08:41:09;;;;;;;16.27;7.75;;;;;;;5.88;100.00;98886.56;4978581;28;20022;-79
2022/01/04 08:43:35;;;;;;;16.10;6.78;;;;;;;5.85;100.00;98872.81;4994643;28;20089;-80
2022/01/04 08:46:00;;;;;;;20.27;9.25;;;;;;;5.80;100.00;98876.00;4999327;28;20116;-79
2022/01/04 08:48:26;;;;;;;25.38;6.72;;;;;;;5.78;100.00;98864.75;4997536;28;20034;-78
2022/01/04 08:50:51;;;;;;;16.93;5.63;;;;;;;5.92;100.00;98885.22;4999474;28;20033;-80
2022/01/04 08:53:17;;;;;;;22.50;7.27;;;;;;;5.89;100.00;98874.94;4983483;28;20691;-78
2022/01/04 08:55:44;;;;;;;22.10;6.78;;;;;;;5.95;100.00;98880.56;4961052;28;20611;-79
2022/01/04 08:58:09;;;;;;;18.15;6.88;;;;;;;5.83;100.00;98853.63;5005389;28;20396;-80
2022/01/04 09:00:36;;;;;;;12.97;5.97;;;;;;;5.89;100.00;98864.34;4983215;28;20034;-78
2022/01/04 09:03:02;;;;;;;14.93;7.57;;;;;;;5.90;100.00;98866.00;4977821;28;20104;-79
2022/01/04 09:05:28;;;;;;;23.42;9.02;;;;;;;5.88;100.00;98857.41;4980206;28;20125;-79
2022/01/04 09:07:54;;;;;;;;;;;;;;;6.00;100.00;98863.16;4995041;28;20023;-80
2022/01/04 09:10:19;;;;;;;;;;;;;;;6.03;100.00;98838.13;4997176;28;19927;-81
2022/01/04 09:13:01;;;;;;;17.20;6.57;;;;;;;5.87;100.00;98823.97;4984003;28;19919;-80
2022/01/04 09:20:51;;;;;;;21.67;9.52;;;;;;;6.00;100.00;98818.13;5004172;28;20030;-80
2022/01/04 09:23:20;;;;;;;24.92;9.50;;;;;;;6.01;100.00;98813.63;4979533;28;20027;-81
2022/01/04 09:25:47;;;;;;;19.05;8.50;;;;;;;5.99;100.00;98811.16;4994020;28;20038;-81
2022/01/04 09:28:15;;;;;;;22.52;10.27;;;;;;;6.17;100.00;98825.91;5002371;28;20030;-81
2022/01/04 09:30:43;;;;;;;29.77;10.38;;;;;;;6.21;100.00;98828.00;5010202;28;20128;-82
2022/01/04 09:33:08;;;;;;;26.80;9.43;;;;;;;6.16;100.00;98822.44;4999512;28;20018;-82
2022/01/04 09:35:36;;;;;;;24.80;9.82;;;;;;;6.20;100.00;98828.19;4995604;28;20034;-81
2022/01/04 09:38:02;;;;;;;24.67;10.35;;;;;;;6.07;100.00;98818.22;4982900;28;20048;-81
2022/01/04 09:40:27;;;;;;;31.80;11.45;;;;;;;6.16;100.00;98819.78;4980371;28;20472;-81
2022/01/04 09:42:52;;;;;;;27.63;10.33;;;;;;;6.23;100.00;98826.00;4977982;28;20054;-82
2022/01/04 09:45:18;;;;;;;25.20;10.50;;;;;;;6.30;100.00;98842.81;4992746;28;20100;-81
2022/01/04 09:47:43;;;;;;;32.10;10.33;;;;;;;6.30;100.00;98834.88;4993123;28;20030;-81
2022/01/04 09:50:14;;;;;;;35.92;10.20;;;;;;;6.27;100.00;98835.22;4982027;28;20655;-79
2022/01/04 09:52:44;;;;;;;28.67;11.30;;;;;;;6.29;100.00;98832.38;4970927;28;20035;-83
2022/01/04 09:55:12;;;;;;;25.35;10.68;;;;;;;6.30;100.00;98832.22;4998490;28;20030;-81
2022/01/04 09:57:38;;;;;;;31.88;12.43;;;;;;;6.24;100.00;98819.69;5001936;28;20403;-81
2022/01/04 10:00:05;;;;;;;27.17;11.93;;;;;;;6.31;100.00;98831.19;4996156;28;20120;-80
2022/01/04 10:02:31;;;;;;;31.35;11.40;;;;;;;6.29;100.00;98825.25;5003996;28;20440;-81
2022/01/04 10:05:23;;;;;;;34.83;12.52;;;;;;;6.33;100.00;98831.84;4986844;28;20067;-80
2022/01/04 10:08:00;;;;;;;31.27;13.00;;;;;;;6.38;100.00;98846.41;5003005;28;20510;-80
2022/01/04 10:10:26;;;;;;;28.45;10.88;;;;;;;6.30;100.00;98834.88;5004093;28;20045;-80
2022/01/04 10:12:59;;;;;;;27.80;12.05;;;;;;;6.32;100.00;98838.16;4998969;28;20026;-80
2022/01/04 10:15:30;;;;;;;31.27;13.65;;;;;;;6.32;100.00;98832.88;5002395;28;20037;-81
2022/01/04 10:17:56;;;;;;;35.05;13.10;;;;;;;6.41;100.00;98827.47;4986083;28;20035;-81
2022/01/04 10:20:22;;;;;;;47.10;14.82;;;;;;;6.43;100.00;98833.41;4996656;28;20131;-81
2022/01/04 10:22:50;;;;;;;28.63;11.07;;;;;;;6.45;100.00;98828.75;5000173;28;20503;-81
2022/01/04 10:25:17;;;;;;;35.38;12.38;;;;;;;6.40;100.00;98823.19;4992658;28;20037;-80
2022/01/04 10:27:47;;;;;;;34.05;13.15;;;;;;;6.38;100.00;98812.75;4986888;28;20399;-80
2022/01/04 10:30:27;;;;;;;34.50;12.05;;;;;;;6.43;100.00;98805.06;5003878;28;20040;-80
2022/01/04 10:33:00;;;;;;;33.42;11.35;;;;;;;6.46;100.00;98804.72;4995416;28;20035;-78
2022/01/04 10:35:43;;;;;;;34.22;11.45;;;;;;;6.47;100.00;98800.22;4995222;28;20066;-78
2022/01/04 10:38:15;;;;;;;26.98;11.20;;;;;;;6.46;100.00;98782.66;5000106;28;20504;-83
2022/01/04 10:40:45;;;;;;;20.30;10.60;;;;;;;6.36;100.00;98766.22;4982262;28;20041;-79
2022/01/04 10:43:23;;;;;;;24.23;10.60;;;;;;;6.38;100.00;98761.56;4998433;28;20122;-80
2022/01/04 10:45:50;;;;;;;19.33;10.27;;;;;;;6.42;100.00;98757.56;5002476;28;20504;-79
2022/01/04 10:48:21;;;;;;;27.65;9.65;;;;;;;6.46;100.00;98764.09;4984620;28;20034;-80
2022/01/04 10:51:04;;;;;;;34.15;10.70;;;;;;;6.36;100.00;98742.38;4992829;28;20652;-79
2022/01/04 10:53:37;;;;;;;27.40;10.07;;;;;;;6.36;100.00;98742.38;4990431;28;20034;-80
2022/01/04 10:56:06;;;;;;;25.27;9.88;;;;;;;6.44;100.00;98756.38;4988169;28;20040;-79
2022/01/04 10:58:44;;;;;;;23.27;10.38;;;;;;;6.39;100.00;98749.94;4998954;28;20029;-79
2022/01/04 11:01:16;;;;;;;26.42;11.38;;;;;;;6.40;100.00;98744.47;4995495;28;20133;-80
2022/01/04 11:04:01;;;;;;;25.88;11.05;;;;;;;6.38;100.00;98737.72;4989335;28;20034;-79
2022/01/04 11:06:38;;;;;;;33.65;10.93;;;;;;;6.23;100.00;98735.09;4993041;28;20077;-78
2022/01/04 11:09:05;;;;;;;33.78;11.73;;;;;;;6.15;100.00;98745.75;4997206;28;20042;-79
2022/01/04 11:11:31;;;;;;;25.48;10.80;;;;;;;6.29;100.00;98759.00;4996541;28;20026;-79
2022/01/04 11:13:58;;;;;;;;;;;;;;;6.27;100.00;98753.06;4975690;28;20030;-78
2022/01/04 11:16:25;;;;;;;30.58;11.52;;;;;;;6.13;100.00;98748.59;5000113;28;19920;-79
2022/01/04 11:18:53;;;;;;;32.28;12.32;;;;;;;6.18;100.00;98772.75;4996798;28;20085;-79
2022/01/04 11:21:24;;;;;;;36.33;13.73;;;;;;;6.14;100.00;98760.84;5003833;28;20025;-79
2022/01/04 11:23:50;;;;;;;30.92;12.07;;;;;;;6.09;100.00;98763.22;5009866;28;20148;-79
2022/01/04 11:26:18;;;;;;;29.88;11.48;;;;;;;6.04;100.00;98762.91;4998956;28;20028;-80
2022/01/04 11:28:47;;;;;;;31.38;11.95;;;;;;;6.03;100.00;98762.09;5002439;28;20722;-78
2022/01/04 11:31:19;;;;;;;26.77;10.68;;;;;;;6.11;100.00;98771.78;4998554;28;20038;-79
2022/01/04 11:33:58;;;;;;;34.80;11.85;;;;;;;6.16;100.00;98784.50;5000876;28;20037;-79